Terminal Aerodrome Forecast
Issued by NWS

Home | Current Version | Previous Version | Graphics & Text | Print | Product List | Glossary On
Versions: 1 2 3 4 5 6 7 8 9 10 11 12 13 14 15 16 17 18 19 20
000
FTUS43 KICT 271215 AAA
TAFHUT
TAF AMD
KHUT 271215Z 2712/2812 VRB03KT P6SM SCT050 BKN130
     FM271700 15007KT P6SM SCT035 BKN080
     FM272000 15009KT P6SM SCT035=

USA.gov is the U.S. government's official web portal to all federal, state and local government web resources and services.